createdAt,value
2023-05-14T00:02:33.381Z,13.57
2023-05-14T00:05:11.959Z,12.67
2023-05-14T00:07:45.730Z,11.23
2023-05-14T00:10:29.538Z,10.00
2023-05-14T00:13:08.190Z,10.93
2023-05-14T00:15:47.506Z,11.57
2023-05-14T00:18:28.023Z,15.13
2023-05-14T00:21:05.082Z,11.60
2023-05-14T00:23:35.504Z,14.93
2023-05-14T00:26:15.026Z,12.83
2023-05-14T00:29:01.834Z,11.73
2023-05-14T00:31:44.225Z,10.67
2023-05-14T00:34:26.995Z,14.37
2023-05-14T00:37:14.603Z,11.97
2023-05-14T00:39:48.930Z,12.00
2023-05-14T00:42:17.259Z,11.40
2023-05-14T00:44:47.411Z,13.67
2023-05-14T00:47:24.357Z,11.93
2023-05-14T00:50:07.428Z,12.27
2023-05-14T00:52:46.173Z,11.47
2023-05-14T00:55:20.250Z,11.80
2023-05-14T00:58:08.818Z,15.23
2023-05-14T01:00:47.664Z,12.23
2023-05-14T01:03:23.061Z,16.37
2023-05-14T01:06:14.571Z,13.93
2023-05-14T01:09:04.494Z,14.40
2023-05-14T01:11:55.749Z,13.70
2023-05-14T01:14:50.443Z,15.07
2023-05-14T01:17:40.253Z,14.20
2023-05-14T01:20:19.125Z,16.17
2023-05-14T01:23:01.861Z,18.17
2023-05-14T01:25:35.644Z,13.70
2023-05-14T01:28:20.279Z,17.63
2023-05-14T01:31:07.895Z,15.33
2023-05-14T01:33:54.118Z,15.30
2023-05-14T01:36:35.488Z,15.30
2023-05-14T01:39:09.616Z,14.53
2023-05-14T01:41:47.499Z,15.63
2023-05-14T01:44:24.203Z,14.37
2023-05-14T01:47:02.623Z,19.30
2023-05-14T01:49:34.962Z,17.00
2023-05-14T01:52:08.516Z,17.07
2023-05-14T01:54:51.515Z,14.57
2023-05-14T01:57:26.091Z,15.20
2023-05-14T02:00:05.354Z,19.27
2023-05-14T02:02:53.490Z,16.43
2023-05-14T02:05:32.691Z,15.83
2023-05-14T02:08:09.626Z,20.17
2023-05-14T02:10:49.092Z,16.53
2023-05-14T02:13:31.303Z,16.37
2023-05-14T02:16:12.567Z,19.37
2023-05-14T02:18:59.688Z,18.07
2023-05-14T02:21:38.685Z,18.73
2023-05-14T02:24:08.930Z,15.37
2023-05-14T02:26:42.676Z,19.33
2023-05-14T02:29:15.378Z,15.97
2023-05-14T02:31:53.950Z,16.27
2023-05-14T02:34:26.612Z,15.97
2023-05-14T02:37:03.301Z,16.07
2023-05-14T02:39:49.023Z,16.47
2023-05-14T02:42:30.634Z,16.93
2023-05-14T02:45:12.275Z,17.70
2023-05-14T02:47:49.466Z,16.47
2023-05-14T02:50:27.709Z,15.17
2023-05-14T02:53:05.701Z,17.40
2023-05-14T02:55:41.325Z,14.83
2023-05-14T02:58:19.657Z,17.43
2023-05-14T03:01:06.574Z,19.47
2023-05-14T03:03:51.477Z,16.77
2023-05-14T03:06:29.485Z,19.27
2023-05-14T03:09:10.059Z,17.77
2023-05-14T03:11:51.987Z,18.07
2023-05-14T03:14:22.049Z,17.83
2023-05-14T03:17:00.872Z,17.17
2023-05-14T03:19:42.533Z,18.83
2023-05-14T03:22:18.779Z,19.37
2023-05-14T03:24:56.369Z,17.20
2023-05-14T03:27:37.266Z,16.83
2023-05-14T03:30:18.531Z,18.20
2023-05-14T03:32:55.950Z,18.90
2023-05-14T03:35:28.348Z,16.70
2023-05-14T03:38:02.224Z,16.60
2023-05-14T03:40:41.844Z,19.67
2023-05-14T03:43:21.616Z,16.50
2023-05-14T03:46:04.053Z,20.63
2023-05-14T03:48:45.028Z,21.80
2023-05-14T03:51:24.839Z,20.67
2023-05-14T03:54:02.433Z,18.10
2023-05-14T03:56:38.803Z,19.03
2023-05-14T03:59:15.418Z,20.30
2023-05-14T04:01:58.317Z,17.63
2023-05-14T04:04:37.736Z,21.57
2023-05-14T04:07:17.360Z,19.77
2023-05-14T04:10:04.661Z,19.77
2023-05-14T04:12:46.905Z,19.07
2023-05-14T04:15:24.306Z,19.80
2023-05-14T04:18:04.014Z,20.63
2023-05-14T04:20:38.738Z,18.83
2023-05-14T04:23:19.699Z,17.37
2023-05-14T04:26:00.224Z,17.47
2023-05-14T04:28:37.840Z,18.60
2023-05-14T04:31:18.762Z,17.73
2023-05-14T04:33:54.696Z,22.30
2023-05-14T04:36:28.170Z,17.47
2023-05-14T04:38:58.526Z,20.97
2023-05-14T04:41:32.104Z,18.87
2023-05-14T04:44:17.770Z,21.20
2023-05-14T04:46:59.797Z,19.10
2023-05-14T04:49:41.255Z,21.77
2023-05-14T04:52:18.392Z,21.10
2023-05-14T04:54:56.872Z,19.17
2023-05-14T04:57:31.987Z,19.87
2023-05-14T05:00:11.867Z,20.23
2023-05-14T05:02:53.539Z,21.73
2023-05-14T05:05:36.255Z,20.83
2023-05-14T05:08:21.774Z,20.87
2023-05-14T05:10:54.418Z,18.40
2023-05-14T05:13:34.493Z,20.47
2023-05-14T05:16:15.730Z,19.93
2023-05-14T05:18:54.945Z,19.37
2023-05-14T05:21:36.788Z,22.03
2023-05-14T05:24:13.995Z,22.35
2023-05-14T05:27:01.838Z,17.90
2023-05-14T05:29:37.936Z,21.43
2023-05-14T05:32:17.109Z,19.97
2023-05-14T05:34:58.072Z,18.13
2023-05-14T05:37:33.528Z,18.33
2023-05-14T05:40:06.156Z,19.13
2023-05-14T05:42:43.640Z,20.37
2023-05-14T05:45:22.304Z,19.57
2023-05-14T05:48:10.087Z,22.27
2023-05-14T05:50:50.240Z,17.77
2023-05-14T05:53:33.039Z,21.00
2023-05-14T05:56:10.963Z,18.27
2023-05-14T05:58:45.777Z,21.27
2023-05-14T06:01:20.827Z,22.63
2023-05-14T06:03:59.255Z,20.93
2023-05-14T06:06:36.444Z,20.63
2023-05-14T06:09:19.244Z,19.10
2023-05-14T06:12:00.661Z,19.43
2023-05-14T06:14:38.790Z,23.87
2023-05-14T06:17:12.743Z,19.30
2023-05-14T06:19:43.398Z,20.73
2023-05-14T06:22:28.522Z,19.73
2023-05-14T06:25:13.760Z,20.57
2023-05-14T06:27:52.453Z,19.27
2023-05-14T06:30:36.588Z,19.03
2023-05-14T06:33:13.176Z,18.40
2023-05-14T06:35:54.426Z,22.70
2023-05-14T06:38:34.897Z,17.97
2023-05-14T06:41:18.513Z,17.97
2023-05-14T06:44:01.730Z,20.17
2023-05-14T06:46:39.767Z,21.20
2023-05-14T06:49:16.424Z,19.13
2023-05-14T06:51:56.384Z,18.37
2023-05-14T06:54:40.599Z,19.43
2023-05-14T06:57:14.907Z,15.47
2023-05-14T07:00:00.038Z,17.93
2023-05-14T07:02:40.429Z,18.30
2023-05-14T07:05:19.926Z,19.13
2023-05-14T07:08:04.439Z,19.13
2023-05-14T07:10:43.608Z,17.33
2023-05-14T07:13:24.618Z,16.50
2023-05-14T07:16:06.051Z,15.63
2023-05-14T07:18:46.912Z,15.20
2023-05-14T07:21:20.201Z,16.67
2023-05-14T07:23:51.205Z,15.27
2023-05-14T07:26:27.907Z,16.03
2023-05-14T07:29:08.226Z,15.93
2023-05-14T07:31:43.826Z,12.33
2023-05-14T07:34:22.746Z,12.97
2023-05-14T07:37:01.927Z,13.00
2023-05-14T07:39:36.031Z,13.17
2023-05-14T07:42:31.800Z,12.23
2023-05-14T07:45:17.235Z,11.53
2023-05-14T07:48:00.553Z,12.10
2023-05-14T07:50:40.374Z,10.13
2023-05-14T07:53:17.299Z,12.07
2023-05-14T07:56:00.044Z,10.03
2023-05-14T07:58:41.106Z,10.67
2023-05-14T08:01:24.473Z,9.13
2023-05-14T08:04:05.013Z,10.20
2023-05-14T08:06:40.119Z,10.90
2023-05-14T08:09:15.207Z,8.57
2023-05-14T08:11:55.229Z,10.40
2023-05-14T08:14:31.976Z,9.70
2023-05-14T08:17:14.761Z,9.40
2023-05-14T08:19:53.794Z,9.03
2023-05-14T08:22:36.513Z,9.17
2023-05-14T08:25:11.033Z,8.93
2023-05-14T08:27:39.158Z,5.57
2023-05-14T08:30:09.521Z,5.07
2023-05-14T08:32:50.771Z,5.70
2023-05-14T08:35:29.965Z,5.73
2023-05-14T08:38:03.616Z,6.17
2023-05-14T08:40:48.255Z,6.37
2023-05-14T08:43:32.086Z,5.57
2023-05-14T08:46:15.673Z,4.90
2023-05-14T08:49:02.718Z,4.90
2023-05-14T08:51:36.977Z,4.57
2023-05-14T08:54:06.637Z,4.53
2023-05-14T08:56:36.957Z,5.40
2023-05-14T08:59:18.997Z,6.50
2023-05-14T09:01:59.938Z,4.80
2023-05-14T09:04:43.486Z,5.50
2023-05-14T09:07:26.350Z,4.50
2023-05-14T09:10:10.689Z,6.60
2023-05-14T09:12:47.529Z,5.17
2023-05-14T09:15:29.185Z,4.90
2023-05-14T09:18:07.074Z,7.17
2023-05-14T09:20:48.615Z,5.90
2023-05-14T09:23:33.274Z,6.67
2023-05-14T09:26:06.810Z,5.90
2023-05-14T09:28:34.896Z,5.43
2023-05-14T09:31:03.596Z,6.03
2023-05-14T09:33:31.611Z,8.77
2023-05-14T09:36:01.602Z,4.20
2023-05-14T09:38:30.921Z,6.47
2023-05-14T09:40:58.905Z,5.57
2023-05-14T09:43:27.011Z,5.73
2023-05-14T09:45:54.746Z,5.80
2023-05-14T09:48:22.892Z,4.90
2023-05-14T09:50:52.059Z,4.03
2023-05-14T09:53:21.348Z,4.87
2023-05-14T09:55:49.495Z,5.53
2023-05-14T09:58:17.429Z,4.40
2023-05-14T10:00:47.206Z,7.13
2023-05-14T10:03:19.583Z,5.00
2023-05-14T10:05:50.201Z,6.43
2023-05-14T10:08:25.285Z,6.70
2023-05-14T10:10:55.374Z,4.63
2023-05-14T10:13:27.674Z,4.07
2023-05-14T10:16:02.191Z,4.97
2023-05-14T10:18:32.731Z,7.10
2023-05-14T10:21:05.959Z,4.73
2023-05-14T10:23:37.763Z,7.70
2023-05-14T10:26:07.594Z,4.67
2023-05-14T10:28:36.532Z,5.97
2023-05-14T10:31:04.411Z,5.50
2023-05-14T10:33:49.348Z,5.57
2023-05-14T10:36:18.301Z,6.53
2023-05-14T10:38:48.636Z,7.00
2023-05-14T10:41:17.901Z,5.47
2023-05-14T10:43:46.124Z,7.03
2023-05-14T10:46:14.996Z,4.23
2023-05-14T10:48:44.022Z,3.83
2023-05-14T10:51:13.169Z,6.87
2023-05-14T10:53:42.296Z,6.83
2023-05-14T10:56:12.757Z,6.63
2023-05-14T10:58:43.169Z,6.03
2023-05-14T11:01:12.835Z,4.80
2023-05-14T11:03:42.305Z,4.20
2023-05-14T11:06:11.251Z,4.03
2023-05-14T11:08:40.550Z,5.97
2023-05-14T11:11:09.898Z,5.40
2023-05-14T11:13:39.147Z,4.63
2023-05-14T11:16:21.575Z,4.10
2023-05-14T11:18:54.922Z,5.50
2023-05-14T11:21:23.035Z,3.70
2023-05-14T11:23:51.333Z,5.77
2023-05-14T11:26:21.537Z,3.33
2023-05-14T11:28:51.188Z,5.33
2023-05-14T11:31:19.288Z,5.37
2023-05-14T11:33:47.296Z,5.63
2023-05-14T11:36:15.126Z,3.40
2023-05-14T11:38:48.759Z,7.03
2023-05-14T11:41:16.500Z,5.37
2023-05-14T11:43:44.308Z,4.23
2023-05-14T11:46:19.291Z,4.43
2023-05-14T11:48:47.502Z,4.17
2023-05-14T11:51:15.306Z,4.67
2023-05-14T11:53:43.039Z,2.87
2023-05-14T11:56:11.348Z,4.17
2023-05-14T11:58:39.194Z,5.47
2023-05-14T12:01:07.129Z,5.90
2023-05-14T12:03:36.492Z,4.23
2023-05-14T12:06:08.007Z,4.33
2023-05-14T12:08:35.769Z,6.43
2023-05-14T12:11:03.711Z,4.93
2023-05-14T12:13:32.500Z,5.27
2023-05-14T12:16:02.595Z,4.40
2023-05-14T12:18:32.432Z,5.97
2023-05-14T12:21:05.916Z,4.07
2023-05-14T12:23:33.925Z,8.40
2023-05-14T12:26:06.919Z,3.57
2023-05-14T12:28:37.539Z,6.33
2023-05-14T12:31:06.090Z,4.43
2023-05-14T12:33:33.983Z,3.30
2023-05-14T12:36:17.565Z,6.37
2023-05-14T12:38:50.802Z,5.20
2023-05-14T12:41:18.940Z,4.93
2023-05-14T12:43:48.896Z,3.43
2023-05-14T12:46:17.008Z,5.20
2023-05-14T12:48:44.716Z,3.57
2023-05-14T12:51:12.561Z,5.90
2023-05-14T12:53:40.560Z,5.30
2023-05-14T12:56:10.140Z,3.87
2023-05-14T12:58:38.004Z,4.70
2023-05-14T13:01:06.543Z,3.33
2023-05-14T13:03:34.930Z,5.43
2023-05-14T13:06:02.622Z,4.23
2023-05-14T13:08:30.945Z,3.23
2023-05-14T13:10:58.684Z,4.20
2023-05-14T13:13:28.179Z,3.57
2023-05-14T13:15:55.999Z,5.20
2023-05-14T13:18:23.693Z,6.47
2023-05-14T13:20:51.816Z,4.70
2023-05-14T13:23:19.607Z,7.87
2023-05-14T13:25:49.735Z,3.90
2023-05-14T13:28:17.679Z,3.77
2023-05-14T13:31:06.109Z,3.67
2023-05-14T13:33:35.779Z,5.33
2023-05-14T13:36:04.049Z,6.90
2023-05-14T13:38:31.917Z,4.83
2023-05-14T13:41:02.469Z,5.67
2023-05-14T13:43:31.312Z,4.33
2023-05-14T13:46:01.209Z,4.10
2023-05-14T13:48:29.447Z,5.53
2023-05-14T13:50:57.146Z,4.87
2023-05-14T13:53:25.765Z,3.70
2023-05-14T13:55:56.416Z,5.57
2023-05-14T13:58:25.241Z,3.67
2023-05-14T14:00:53.368Z,4.10
2023-05-14T14:03:22.632Z,5.60
2023-05-14T14:05:51.745Z,4.57
2023-05-14T14:08:24.126Z,6.53
2023-05-14T14:10:54.556Z,4.17
2023-05-14T14:13:22.936Z,4.53
2023-05-14T14:15:51.306Z,4.40
2023-05-14T14:18:19.204Z,7.87
2023-05-14T14:20:48.519Z,5.90
2023-05-14T14:23:16.216Z,4.37
2023-05-14T14:25:43.935Z,10.10
2023-05-14T14:28:11.599Z,4.43
2023-05-14T14:30:39.411Z,3.60
2023-05-14T14:33:07.320Z,4.80
2023-05-14T14:35:35.721Z,3.13
2023-05-14T14:38:04.789Z,4.40
2023-05-14T14:40:34.056Z,5.20
2023-05-14T14:43:02.192Z,5.30
2023-05-14T14:45:30.060Z,4.00
2023-05-14T14:48:25.995Z,3.40
2023-05-14T14:50:54.409Z,5.53
2023-05-14T14:53:24.619Z,4.23
2023-05-14T14:55:53.079Z,3.10
2023-05-14T14:58:21.500Z,3.80
2023-05-14T15:00:49.971Z,3.93
2023-05-14T15:03:19.300Z,4.27
2023-05-14T15:05:47.054Z,3.87
2023-05-14T15:08:15.055Z,3.93
2023-05-14T15:10:45.731Z,3.53
2023-05-14T15:13:13.923Z,3.30
2023-05-14T15:15:41.786Z,4.13
2023-05-14T15:18:10.050Z,3.07
2023-05-14T15:20:38.397Z,3.97
2023-05-14T15:23:07.054Z,4.47
2023-05-14T15:25:35.235Z,4.03
2023-05-14T15:28:06.472Z,3.07
2023-05-14T15:30:34.612Z,3.40
2023-05-14T15:33:02.517Z,4.57
2023-05-14T15:35:30.245Z,4.80
2023-05-14T15:37:58.145Z,4.10
2023-05-14T15:40:26.139Z,2.97
2023-05-14T15:42:54.450Z,5.57
2023-05-14T15:45:23.832Z,3.50
2023-05-14T15:47:51.945Z,3.47
2023-05-14T15:50:20.146Z,5.47
2023-05-14T15:52:48.006Z,3.87
2023-05-14T15:55:15.816Z,3.60
2023-05-14T15:57:43.592Z,3.93
2023-05-14T16:00:12.740Z,4.13
2023-05-14T16:02:43.291Z,4.63
2023-05-14T16:05:11.145Z,4.33
2023-05-14T16:07:39.555Z,7.80
2023-05-14T16:10:08.475Z,3.80
2023-05-14T16:12:36.249Z,4.20
2023-05-14T16:15:04.448Z,3.93
2023-05-14T16:17:32.785Z,4.70
2023-05-14T16:20:02.227Z,4.57
2023-05-14T16:22:32.619Z,5.37
2023-05-14T16:25:03.183Z,5.80
2023-05-14T16:27:31.449Z,6.30
2023-05-14T16:29:59.313Z,7.03
2023-05-14T16:32:28.089Z,5.80
2023-05-14T16:34:56.448Z,6.20
2023-05-14T16:37:25.645Z,5.13
2023-05-14T16:39:53.428Z,5.07
2023-05-14T16:42:21.505Z,4.97
2023-05-14T16:44:49.427Z,4.97
2023-05-14T16:47:17.138Z,4.37
2023-05-14T16:49:44.781Z,4.93
2023-05-14T16:52:12.567Z,4.60
2023-05-14T16:54:42.116Z,8.30
2023-05-14T16:57:09.845Z,8.63
2023-05-14T16:59:37.601Z,6.97
2023-05-14T17:02:06.049Z,5.13
2023-05-14T17:04:38.671Z,6.13
2023-05-14T17:07:06.845Z,5.83
2023-05-14T17:09:34.772Z,5.83
2023-05-14T17:12:03.999Z,7.20
2023-05-14T17:14:31.903Z,6.90
2023-05-14T17:16:59.687Z,5.57
2023-05-14T17:19:27.532Z,5.80
2023-05-14T17:21:55.186Z,4.83
2023-05-14T17:24:23.957Z,6.83
2023-05-14T17:26:51.664Z,5.50
2023-05-14T17:29:20.720Z,7.53
2023-05-14T17:31:49.228Z,8.37
2023-05-14T17:34:17.635Z,6.17
2023-05-14T17:36:45.660Z,4.90
2023-05-14T17:39:13.510Z,6.10
2023-05-14T17:41:42.084Z,4.80
2023-05-14T17:44:12.097Z,5.23
2023-05-14T17:46:44.950Z,6.67
2023-05-14T17:49:13.125Z,4.87
2023-05-14T17:51:40.927Z,8.77
2023-05-14T17:54:08.913Z,4.77
2023-05-14T17:56:36.824Z,4.50
2023-05-14T17:59:04.946Z,8.13
2023-05-14T18:01:32.729Z,4.73
2023-05-14T18:04:02.008Z,5.73
2023-05-14T18:06:29.946Z,6.17
2023-05-14T18:08:57.589Z,5.43
2023-05-14T18:11:25.954Z,6.40
2023-05-14T18:13:53.936Z,6.10
2023-05-14T18:16:21.772Z,4.57
2023-05-14T18:18:49.762Z,4.90
2023-05-14T18:21:19.196Z,6.40
2023-05-14T18:23:46.918Z,4.27
2023-05-14T18:26:15.005Z,7.73
2023-05-14T18:28:42.981Z,6.23
2023-05-14T18:31:10.907Z,5.90
2023-05-14T18:33:38.884Z,5.70
2023-05-14T18:36:07.051Z,6.53
2023-05-14T18:38:36.230Z,6.60
2023-05-14T18:41:03.963Z,4.73
2023-05-14T18:43:31.984Z,7.33
2023-05-14T18:46:00.229Z,6.10
2023-05-14T18:48:28.121Z,4.47
2023-05-14T18:50:56.152Z,6.60
2023-05-14T18:53:23.940Z,5.80
2023-05-14T18:55:53.411Z,5.90
2023-05-14T18:58:21.373Z,7.33
2023-05-14T19:00:49.572Z,4.57
2023-05-14T19:03:17.435Z,6.30
2023-05-14T19:05:45.183Z,7.20
2023-05-14T19:08:12.990Z,5.47
2023-05-14T19:10:40.918Z,5.43
2023-05-14T19:13:09.985Z,7.23
2023-05-14T19:15:38.643Z,5.30
2023-05-14T19:18:06.497Z,5.83
2023-05-14T19:20:34.695Z,5.70
2023-05-14T19:23:02.790Z,8.33
2023-05-14T19:25:31.170Z,5.37
2023-05-14T19:28:01.628Z,6.30
2023-05-14T19:30:31.340Z,5.90
2023-05-14T19:32:59.132Z,7.70
2023-05-14T19:35:27.370Z,8.13
2023-05-14T19:37:55.138Z,7.80
2023-05-14T19:40:22.854Z,6.07
2023-05-14T19:42:50.674Z,8.60
2023-05-14T19:45:18.415Z,5.17
2023-05-14T19:47:47.603Z,6.17
2023-05-14T19:50:15.882Z,5.60
2023-05-14T19:52:43.560Z,4.73
2023-05-14T19:55:11.528Z,6.67
2023-05-14T19:57:39.901Z,5.47
2023-05-14T20:00:10.577Z,5.77
2023-05-14T20:02:41.927Z,7.87
2023-05-14T20:05:11.474Z,5.90
2023-05-14T20:07:40.497Z,6.63
2023-05-14T20:10:09.492Z,7.33
2023-05-14T20:12:37.312Z,6.83
2023-05-14T20:15:05.615Z,5.33
2023-05-14T20:17:33.524Z,6.27
2023-05-14T20:20:01.365Z,5.93
2023-05-14T20:22:30.524Z,6.60
2023-05-14T20:24:58.277Z,8.40
2023-05-14T20:27:26.084Z,6.70
2023-05-14T20:29:54.092Z,5.20
2023-05-14T20:32:24.694Z,5.10
2023-05-14T20:34:52.668Z,8.00
2023-05-14T20:37:21.515Z,5.10
2023-05-14T20:39:50.893Z,7.10
2023-05-14T20:42:18.789Z,6.67
2023-05-14T20:44:48.329Z,6.70
2023-05-14T20:47:20.073Z,6.73
2023-05-14T20:49:47.996Z,8.03
2023-05-14T20:52:16.019Z,5.63
2023-05-14T20:54:43.937Z,5.20
2023-05-14T20:57:15.184Z,6.37
2023-05-14T20:59:43.298Z,5.50
2023-05-14T21:02:11.070Z,4.57
2023-05-14T21:04:39.611Z,6.13
2023-05-14T21:07:08.034Z,6.43
2023-05-14T21:09:35.686Z,5.93
2023-05-14T21:12:03.357Z,7.30
2023-05-14T21:14:32.458Z,7.40
2023-05-14T21:17:00.229Z,5.83
2023-05-14T21:19:27.971Z,7.20
2023-05-14T21:21:55.822Z,7.47
2023-05-14T21:24:23.450Z,6.40
2023-05-14T21:26:52.937Z,5.83
2023-05-14T21:29:21.646Z,5.77
2023-05-14T21:31:50.748Z,8.23
2023-05-14T21:34:18.589Z,5.87
2023-05-14T21:36:46.687Z,6.80
2023-05-14T21:39:15.048Z,6.20
2023-05-14T21:41:43.064Z,7.20
2023-05-14T21:44:10.795Z,6.37
2023-05-14T21:46:38.900Z,5.13
2023-05-14T21:49:08.214Z,6.27
2023-05-14T21:51:36.457Z,6.60
2023-05-14T21:54:04.243Z,7.13
2023-05-14T21:56:32.185Z,6.00
2023-05-14T21:59:00.132Z,6.97
2023-05-14T22:01:27.965Z,8.23
2023-05-14T22:03:57.628Z,6.20
2023-05-14T22:06:27.442Z,6.73
2023-05-14T22:08:55.638Z,6.40
2023-05-14T22:11:23.431Z,9.10
2023-05-14T22:13:51.192Z,7.00
2023-05-14T22:16:18.956Z,10.23
2023-05-14T22:18:47.081Z,7.73
2023-05-14T22:21:15.193Z,6.70
2023-05-14T22:23:45.233Z,9.07
2023-05-14T22:26:12.943Z,6.87
2023-05-14T22:28:43.018Z,5.97
2023-05-14T22:31:11.406Z,8.63
2023-05-14T22:33:39.213Z,8.83
2023-05-14T22:36:08.040Z,11.30
2023-05-14T22:38:35.985Z,7.57
2023-05-14T22:41:05.249Z,9.87
2023-05-14T22:43:33.217Z,16.67
2023-05-14T22:46:01.353Z,14.63
2023-05-14T22:48:29.110Z,14.77
2023-05-14T22:50:56.877Z,18.33
2023-05-14T22:53:25.383Z,13.77
2023-05-14T22:55:53.387Z,12.87
2023-05-14T22:58:22.565Z,15.33
2023-05-14T23:00:50.308Z,17.93
2023-05-14T23:03:18.040Z,15.53
2023-05-14T23:05:45.761Z,14.40
2023-05-14T23:08:13.466Z,17.20
2023-05-14T23:10:41.287Z,13.13
2023-05-14T23:13:09.112Z,21.33
2023-05-14T23:15:38.739Z,19.00
2023-05-14T23:18:06.764Z,16.10
2023-05-14T23:20:34.605Z,20.50
2023-05-14T23:23:02.350Z,22.07
2023-05-14T23:25:30.087Z,22.60
2023-05-14T23:27:57.841Z,19.03
2023-05-14T23:30:25.862Z,17.03
2023-05-14T23:32:55.275Z,20.17
2023-05-14T23:35:23.763Z,23.20
2023-05-14T23:37:51.925Z,25.07
2023-05-14T23:40:19.675Z,22.50
2023-05-14T23:42:47.438Z,19.93
2023-05-14T23:45:15.118Z,19.27
2023-05-14T23:47:43.073Z,23.73
2023-05-14T23:50:12.285Z,19.60
2023-05-14T23:52:40.173Z,21.23
2023-05-14T23:55:08.292Z,17.23
2023-05-14T23:57:36.981Z,19.43
